Estación Meteorológica Peña el Pijo (Robertgarden) [ 12/11/19 23:12:48 CET ]

Fecha Hora Presion(HPa) Temp (°C) Humedad % Rocio (°C) Viento ( m/s) Direccion Lluvia 1Hora(mm) Lluvia 24H(mm) LLuvia Total(mm)
2019-Sep-09 01:01:52 1011.800 13.6 80 10.2         391.83
2019-Sep-09 02:01:46 1011.700 12.8 82 9.8         391.83
2019-Sep-09 03:02:34 1011.200 12.9 83 10.0         391.83
2019-Sep-09 04:02:20 1011.000 12.8 83 9.9         391.83
2019-Sep-09 05:10:10 1010.800 12.1 83 9.3         391.83
2019-Sep-09 06:10:06 1010.700 11.3 84 8.7         391.83
2019-Sep-09 07:01:57 1010.700 11.2 85 8.8         391.83
2019-Sep-09 08:01:49 1011.100 11.3 85 8.8         391.83
2019-Sep-09 09:01:39 1011.300 13.8 85 11.3         391.83
2019-Sep-09 10:01:46 1011.300 18.6 73 13.6         391.83
2019-Sep-09 11:01:51 1010.900 22.6 56 13.3         391.83
2019-Sep-09 12:02:02 1010.900 26.6 42 12.6         391.83
2019-Sep-09 13:01:43 1010.500 28.7 36 12.1         391.83
2019-Sep-09 14:01:37 1009.800 30.0 32 11.5         391.83
2019-Sep-09 15:01:42 1009.300 28.8 33 10.8         391.83
2019-Sep-09 16:01:31 1008.700 28.1 31 9.3         391.83
2019-Sep-09 17:01:33 1008.800 25.8 35 9.1         391.83
2019-Sep-09 18:01:50 1008.300 27.6 31 8.9         391.83
2019-Sep-09 19:01:41 1008.700 25.2 33 7.7         391.83
2019-Sep-09 20:01:39 1008.700 22.5 38 7.4         391.83
2019-Sep-09 21:02:11 1008.900 18.7 48 7.4         391.83
2019-Sep-09 22:01:46 1009.200 16.1 59 8.1         391.83
2019-Sep-09 23:01:49 1009.100 14.9 64 8.1         391.83

Temperatura Máxima:30°    Temperatura Mínima:11°
Presión Máxima:1011.800 Hpa    Presión Mínima:1008.300 Hpa


Volver